createdAt,value
2018-08-08T00:00:55.901Z,23.30
2018-08-08T00:03:25.039Z,23.30
2018-08-08T00:05:54.332Z,23.20
2018-08-08T00:08:23.621Z,23.20
2018-08-08T00:10:52.734Z,23.20
2018-08-08T00:13:21.874Z,23.20
2018-08-08T00:15:51.106Z,23.30
2018-08-08T00:18:20.584Z,23.20
2018-08-08T00:20:49.746Z,23.20
2018-08-08T00:23:18.932Z,23.20
2018-08-08T00:25:48.158Z,23.20
2018-08-08T00:28:17.442Z,23.20
2018-08-08T00:30:47.098Z,23.10
2018-08-08T00:33:16.219Z,23.10
2018-08-08T00:35:45.342Z,23.20
2018-08-08T00:38:14.590Z,23.30
2018-08-08T00:40:43.743Z,23.30
2018-08-08T00:43:12.906Z,23.50
2018-08-08T00:45:42.206Z,23.60
2018-08-08T00:48:11.386Z,23.60
2018-08-08T00:50:40.549Z,23.60
2018-08-08T00:53:09.720Z,23.60
2018-08-08T00:55:38.904Z,23.50
2018-08-08T00:58:08.056Z,23.50
2018-08-08T01:00:37.234Z,23.40
2018-08-08T01:03:06.552Z,23.40
2018-08-08T01:05:35.710Z,23.40
2018-08-08T01:08:04.961Z,23.30
2018-08-08T01:10:34.152Z,23.30
2018-08-08T01:13:03.380Z,23.40
2018-08-08T01:15:32.590Z,23.30
2018-08-08T01:18:01.754Z,23.40
2018-08-08T01:20:30.927Z,23.40
2018-08-08T01:23:00.062Z,23.30
2018-08-08T01:25:29.424Z,23.40
2018-08-08T01:27:58.610Z,23.40
2018-08-08T01:30:27.890Z,23.40
2018-08-08T01:32:57.498Z,23.40
2018-08-08T01:35:26.684Z,23.40
2018-08-08T01:37:55.890Z,23.40
2018-08-08T01:40:25.080Z,23.40
2018-08-08T01:42:54.264Z,23.40
2018-08-08T01:45:23.428Z,23.40
2018-08-08T01:47:52.590Z,23.40
2018-08-08T01:50:21.894Z,23.30
2018-08-08T01:52:51.012Z,23.30
2018-08-08T01:55:20.130Z,23.30
2018-08-08T01:57:49.329Z,23.30
2018-08-08T02:00:18.632Z,23.30
2018-08-08T02:02:47.753Z,23.10
2018-08-08T02:05:16.908Z,23.10
2018-08-08T02:07:46.090Z,23.00
2018-08-08T02:10:17.734Z,23.00
2018-08-08T02:12:47.351Z,23.00
2018-08-08T02:15:16.630Z,23.00
2018-08-08T02:17:45.816Z,23.20
2018-08-08T02:20:15.384Z,23.20
2018-08-08T02:22:44.861Z,23.40
2018-08-08T02:25:15.587Z,23.40
2018-08-08T02:27:44.856Z,23.50
2018-08-08T02:30:20.192Z,23.50
2018-08-08T02:32:50.525Z,23.50
2018-08-08T02:35:20.739Z,23.50
2018-08-08T02:37:50.116Z,23.50
2018-08-08T02:40:19.327Z,23.50
2018-08-08T02:42:48.526Z,23.50
2018-08-08T02:45:19.307Z,23.40
2018-08-08T02:47:48.673Z,23.40
2018-08-08T02:50:19.452Z,23.40
2018-08-08T02:52:48.743Z,23.30
2018-08-08T02:55:17.910Z,23.10
2018-08-08T02:57:47.067Z,23.00
2018-08-08T03:00:17.933Z,23.00
2018-08-08T03:02:47.166Z,22.80
2018-08-08T03:05:16.513Z,22.70
2018-08-08T03:07:46.143Z,22.60
2018-08-08T03:10:16.849Z,22.60
2018-08-08T03:12:46.353Z,22.50
2018-08-08T03:15:17.477Z,22.50
2018-08-08T03:17:46.639Z,22.60
2018-08-08T03:20:16.600Z,22.50
2018-08-08T03:22:47.052Z,22.20
2018-08-08T03:25:17.204Z,22.00
2018-08-08T03:27:46.948Z,22.00
2018-08-08T03:30:20.542Z,22.00
2018-08-08T03:32:49.784Z,21.70
2018-08-08T03:35:19.740Z,21.40
2018-08-08T03:37:49.344Z,21.40
2018-08-08T03:40:18.826Z,21.40
2018-08-08T03:42:48.172Z,21.40
2018-08-08T03:45:17.784Z,21.50
2018-08-08T03:47:46.994Z,21.20
2018-08-08T03:50:16.206Z,20.70
2018-08-08T03:52:45.642Z,20.40
2018-08-08T03:55:14.836Z,20.50
2018-08-08T03:57:44.042Z,20.50
2018-08-08T04:00:17.236Z,20.60
2018-08-08T04:02:46.939Z,20.70
2018-08-08T04:05:16.104Z,20.80
2018-08-08T04:07:45.992Z,20.80
2018-08-08T04:10:15.854Z,20.90
2018-08-08T04:12:45.026Z,20.90
2018-08-08T04:15:16.581Z,21.00
2018-08-08T04:17:45.896Z,21.00
2018-08-08T04:20:15.386Z,21.00
2018-08-08T04:22:44.748Z,21.00
2018-08-08T04:25:15.016Z,21.10
2018-08-08T04:27:44.542Z,21.10
2018-08-08T04:30:19.114Z,20.80
2018-08-08T04:32:48.601Z,20.90
2018-08-08T04:35:18.070Z,21.00
2018-08-08T04:37:47.214Z,21.10
2018-08-08T04:40:18.436Z,21.00
2018-08-08T04:42:48.546Z,21.00
2018-08-08T04:45:18.278Z,20.90
2018-08-08T04:47:48.010Z,20.80
2018-08-08T04:50:18.302Z,20.80
2018-08-08T04:52:47.538Z,20.70
2018-08-08T04:55:17.825Z,20.70
2018-08-08T04:57:46.989Z,20.70
2018-08-08T05:00:17.589Z,20.60
2018-08-08T05:02:46.771Z,20.60
2018-08-08T05:05:16.386Z,20.50
2018-08-08T05:07:45.556Z,20.60
2018-08-08T05:10:14.750Z,20.70
2018-08-08T05:12:43.970Z,20.80
2018-08-08T05:15:16.502Z,20.70
2018-08-08T05:17:46.752Z,20.70
2018-08-08T05:20:16.226Z,20.70
2018-08-08T05:22:46.800Z,20.70
2018-08-08T05:25:16.408Z,20.60
2018-08-08T05:27:46.023Z,20.60
2018-08-08T05:30:18.581Z,20.60
2018-08-08T05:32:47.809Z,20.60
2018-08-08T05:35:18.902Z,20.60
2018-08-08T05:37:48.688Z,20.70
2018-08-08T05:40:20.818Z,20.70
2018-08-08T05:42:52.465Z,20.70
2018-08-08T05:45:24.524Z,20.60
2018-08-08T05:47:55.938Z,20.60
2018-08-08T05:50:25.740Z,20.60
2018-08-08T05:52:55.633Z,20.50
2018-08-08T05:55:25.644Z,20.50
2018-08-08T05:57:56.017Z,20.50
2018-08-08T06:00:28.475Z,20.50
2018-08-08T06:02:58.487Z,20.60
2018-08-08T06:05:28.223Z,20.60
2018-08-08T06:07:58.952Z,20.50
2018-08-08T06:10:28.891Z,20.50
2018-08-08T06:12:58.131Z,20.60
2018-08-08T06:15:27.357Z,20.60
2018-08-08T06:17:56.597Z,20.60
2018-08-08T06:20:25.781Z,20.70
2018-08-08T06:22:55.088Z,20.80
2018-08-08T06:25:24.241Z,20.80
2018-08-08T06:27:53.505Z,20.80
2018-08-08T06:30:24.013Z,20.90
2018-08-08T06:32:54.028Z,20.90
2018-08-08T06:35:25.311Z,20.80
2018-08-08T06:37:55.422Z,20.70
2018-08-08T06:40:24.905Z,20.40
2018-08-08T06:42:54.085Z,20.60
2018-08-08T06:45:25.012Z,20.70
2018-08-08T06:47:54.279Z,20.80
2018-08-08T06:50:23.645Z,21.00
2018-08-08T06:52:52.855Z,21.00
2018-08-08T06:55:22.276Z,21.10
2018-08-08T06:57:51.555Z,21.10
2018-08-08T07:00:36.366Z,21.30
2018-08-08T07:03:05.959Z,21.40
2018-08-08T07:05:37.176Z,21.30
2018-08-08T07:08:06.659Z,21.30
2018-08-08T07:10:35.933Z,21.40
2018-08-08T07:13:05.113Z,21.50
2018-08-08T07:15:34.309Z,21.50
2018-08-08T07:18:03.661Z,21.60
2018-08-08T07:20:32.945Z,21.60
2018-08-08T07:23:02.301Z,21.80
2018-08-08T07:25:31.569Z,21.80
2018-08-08T07:28:00.679Z,21.70
2018-08-08T07:30:29.855Z,21.80
2018-08-08T07:32:59.033Z,21.70
2018-08-08T07:35:28.251Z,21.60
2018-08-08T07:37:57.429Z,21.70
2018-08-08T07:40:27.662Z,21.60
2018-08-08T07:42:56.825Z,21.50
2018-08-08T07:45:27.406Z,21.50
2018-08-08T07:47:56.543Z,21.60
2018-08-08T07:50:25.793Z,21.80
2018-08-08T07:52:55.575Z,21.80
2018-08-08T07:55:24.871Z,21.80
2018-08-08T07:57:54.106Z,21.80
2018-08-08T08:00:26.581Z,21.80
2018-08-08T08:02:56.645Z,21.60
2018-08-08T08:05:25.881Z,21.60
2018-08-08T08:07:55.652Z,21.80
2018-08-08T08:10:24.819Z,22.00
2018-08-08T08:12:54.007Z,22.00
2018-08-08T08:15:23.174Z,22.00
2018-08-08T08:17:52.345Z,22.00
2018-08-08T08:20:21.466Z,22.30
2018-08-08T08:22:51.362Z,22.40
2018-08-08T08:25:20.560Z,22.50
2018-08-08T08:27:49.772Z,22.60
2018-08-08T08:30:19.827Z,22.80
2018-08-08T08:32:49.015Z,22.80
2018-08-08T08:35:18.167Z,23.00
2018-08-08T08:37:47.275Z,23.00
2018-08-08T08:40:16.591Z,23.10
2018-08-08T08:42:45.930Z,23.10
2018-08-08T08:45:15.022Z,23.20
2018-08-08T08:47:45.186Z,23.30
2018-08-08T08:50:14.408Z,23.50
2018-08-08T08:52:43.522Z,23.30
2018-08-08T08:55:12.698Z,23.60
2018-08-08T08:57:41.910Z,23.90
2018-08-08T09:00:13.000Z,24.10
2018-08-08T09:02:43.744Z,24.40
2018-08-08T09:05:12.946Z,24.40
2018-08-08T09:07:42.051Z,24.50
2018-08-08T09:10:11.803Z,24.70
2018-08-08T09:12:41.837Z,25.10
2018-08-08T09:15:12.978Z,24.90
2018-08-08T09:17:42.206Z,24.80
2018-08-08T09:20:11.443Z,24.90
2018-08-08T09:22:40.736Z,25.00
2018-08-08T09:25:10.766Z,25.20
2018-08-08T09:27:39.930Z,25.40
2018-08-08T09:30:11.338Z,25.50
2018-08-08T09:32:42.208Z,25.90
2018-08-08T09:35:12.133Z,26.40
2018-08-08T09:37:42.088Z,26.60
2018-08-08T09:40:12.017Z,26.70
2018-08-08T09:42:41.191Z,26.50
2018-08-08T09:45:10.873Z,26.60
2018-08-08T09:47:40.066Z,26.50
2018-08-08T09:50:09.970Z,26.70
2018-08-08T09:52:39.550Z,26.30
2018-08-08T09:55:08.700Z,26.50
2018-08-08T09:57:37.860Z,26.30
2018-08-08T10:00:07.653Z,26.70
2018-08-08T10:02:38.257Z,26.80
2018-08-08T10:05:08.148Z,26.90
2018-08-08T10:07:37.598Z,26.70
2018-08-08T10:10:06.826Z,26.50
2018-08-08T10:12:36.064Z,26.20
2018-08-08T10:15:05.715Z,26.40
2018-08-08T10:17:34.962Z,26.80
2018-08-08T10:20:04.348Z,27.20
2018-08-08T10:22:33.534Z,27.60
2018-08-08T10:25:02.726Z,27.80
2018-08-08T10:27:31.906Z,27.90
2018-08-08T10:30:01.140Z,28.00
2018-08-08T10:32:30.359Z,28.40
2018-08-08T10:34:59.512Z,28.80
2018-08-08T10:37:28.795Z,29.20
2018-08-08T10:39:57.963Z,29.30
2018-08-08T10:42:27.118Z,28.70
2018-08-08T10:44:56.342Z,28.60
2018-08-08T10:47:25.528Z,28.70
2018-08-08T10:49:54.724Z,28.60
2018-08-08T10:52:23.932Z,28.40
2018-08-08T10:54:53.123Z,28.70
2018-08-08T10:57:22.718Z,28.90
2018-08-08T10:59:52.030Z,28.90
2018-08-08T11:02:21.194Z,29.40
2018-08-08T11:04:50.402Z,29.60
2018-08-08T11:07:19.653Z,29.40
2018-08-08T11:09:49.435Z,29.40
2018-08-08T11:12:18.628Z,29.70
2018-08-08T11:14:47.972Z,29.90
2018-08-08T11:17:17.228Z,30.10
2018-08-08T11:19:46.403Z,29.90
2018-08-08T11:22:15.636Z,29.80
2018-08-08T11:24:44.911Z,30.00
2018-08-08T11:27:14.096Z,29.70
2018-08-08T11:29:43.255Z,30.30
2018-08-08T11:32:13.112Z,30.60
2018-08-08T11:34:42.419Z,30.60
2018-08-08T11:37:11.597Z,30.60
2018-08-08T11:39:40.887Z,30.60
2018-08-08T11:42:10.753Z,30.40
2018-08-08T11:44:39.952Z,30.80
2018-08-08T11:47:10.457Z,31.30
2018-08-08T11:49:39.764Z,31.70
2018-08-08T11:52:09.520Z,31.80
2018-08-08T11:54:38.718Z,31.70
2018-08-08T11:57:07.909Z,31.30
2018-08-08T11:59:37.007Z,31.20
2018-08-08T12:02:09.657Z,31.50
2018-08-08T12:04:38.861Z,31.60
2018-08-08T12:07:08.107Z,31.70
2018-08-08T12:09:37.253Z,31.80
2018-08-08T12:12:07.006Z,31.90
2018-08-08T12:14:36.234Z,32.10
2018-08-08T12:17:06.330Z,32.50
2018-08-08T12:19:49.051Z,32.10
2018-08-08T12:22:19.222Z,31.60
2018-08-08T12:25:06.571Z,31.80
2018-08-08T12:27:36.168Z,32.30
2018-08-08T12:30:13.243Z,31.80
2018-08-08T12:32:46.666Z,31.30
2018-08-08T12:35:23.540Z,31.40
2018-08-08T12:37:52.730Z,31.50
2018-08-08T12:55:11.167Z,32.80
2018-08-08T12:57:40.854Z,32.80
2018-08-08T13:06:02.882Z,32.40
2018-08-08T13:11:11.984Z,32.10
2018-08-08T13:13:54.438Z,32.10
2018-08-08T13:16:24.225Z,32.50
2018-08-08T13:22:05.271Z,33.50
2018-08-08T13:24:34.491Z,33.70
2018-08-08T13:30:10.368Z,32.50
2018-08-08T13:32:39.671Z,32.80
2018-08-08T13:35:21.298Z,32.60
2018-08-08T13:37:52.239Z,32.80
2018-08-08T13:40:22.771Z,32.80
2018-08-08T13:45:51.516Z,32.80
2018-08-08T13:48:21.445Z,32.80
2018-08-08T13:50:57.276Z,32.60
2018-08-08T13:53:26.905Z,32.50
2018-08-08T13:59:09.380Z,32.20
2018-08-08T14:01:41.223Z,31.80
2018-08-08T14:04:19.680Z,31.70
2018-08-08T14:06:51.777Z,31.40
2018-08-08T14:09:21.297Z,31.40
2018-08-08T14:11:57.079Z,31.20
2018-08-08T14:14:27.748Z,31.00
2018-08-08T14:16:57.667Z,31.00
2018-08-08T14:19:27.187Z,31.00
2018-08-08T14:21:56.814Z,31.00
2018-08-08T14:24:26.314Z,31.00
2018-08-08T14:27:01.345Z,30.90
2018-08-08T14:29:31.309Z,30.90
2018-08-08T14:32:08.518Z,31.00
2018-08-08T14:34:38.228Z,31.00
2018-08-08T14:37:08.879Z,31.10
2018-08-08T14:39:38.560Z,31.60
2018-08-08T14:42:07.957Z,31.80
2018-08-08T14:44:47.516Z,32.10
2018-08-08T14:47:17.180Z,32.30
2018-08-08T14:49:46.982Z,32.50
2018-08-08T14:52:16.370Z,32.60
2018-08-08T14:54:46.656Z,32.80
2018-08-08T14:57:28.466Z,32.90
2018-08-08T14:59:59.194Z,32.70
2018-08-08T15:02:39.566Z,32.40
2018-08-08T15:05:10.038Z,32.10
2018-08-08T15:07:48.921Z,31.90
2018-08-08T15:10:24.406Z,31.80
2018-08-08T15:12:53.581Z,31.70
2018-08-08T15:15:48.139Z,31.60
2018-08-08T15:18:17.986Z,31.40
2018-08-08T15:20:51.536Z,31.60
2018-08-08T15:23:26.112Z,31.60
2018-08-08T15:25:57.422Z,31.60
2018-08-08T15:34:15.123Z,31.80
2018-08-08T15:36:47.555Z,32.10
2018-08-08T15:39:23.356Z,32.50
2018-08-08T15:41:53.658Z,32.50
2018-08-08T15:44:23.934Z,32.40
2018-08-08T15:46:59.000Z,32.30
2018-08-08T15:49:28.949Z,32.10
2018-08-08T15:52:02.007Z,32.00
2018-08-08T15:54:34.053Z,31.90
2018-08-08T15:59:58.714Z,32.20
2018-08-08T16:02:30.175Z,32.70
2018-08-08T16:05:02.045Z,32.70
2018-08-08T16:07:33.694Z,32.70
2018-08-08T16:10:13.052Z,32.60
2018-08-08T16:12:44.032Z,32.50
2018-08-08T16:15:23.404Z,32.30
2018-08-08T16:17:53.425Z,32.00
2018-08-08T16:20:35.809Z,31.60
2018-08-08T16:23:06.716Z,31.10
2018-08-08T16:25:58.859Z,30.70
2018-08-08T16:28:28.834Z,30.60
2018-08-08T16:31:02.142Z,30.20
2018-08-08T16:33:32.480Z,29.90
2018-08-08T16:36:08.568Z,29.80
2018-08-08T16:38:38.800Z,29.70
2018-08-08T16:41:08.638Z,29.60
2018-08-08T16:43:40.642Z,29.50
2018-08-08T16:48:56.618Z,29.30
2018-08-08T16:51:33.870Z,29.20
2018-08-08T16:54:05.803Z,29.10
2018-08-08T16:59:47.770Z,29.00
2018-08-08T17:02:41.288Z,28.80
2018-08-08T17:05:12.054Z,28.70
2018-08-08T17:07:42.253Z,28.50
2018-08-08T17:10:12.392Z,28.50
2018-08-08T17:12:43.254Z,28.50
2018-08-08T17:15:18.859Z,28.50
2018-08-08T17:17:49.478Z,28.40
2018-08-08T17:20:20.406Z,28.20
2018-08-08T17:22:50.785Z,28.10
2018-08-08T17:25:26.104Z,28.00
2018-08-08T17:27:55.849Z,28.00
2018-08-08T17:30:33.211Z,27.90
2018-08-08T17:33:02.899Z,27.80
2018-08-08T17:35:32.927Z,27.60
2018-08-08T17:38:02.642Z,27.40
2018-08-08T17:40:32.474Z,27.20
2018-08-08T17:43:02.034Z,27.00
2018-08-08T17:45:31.756Z,26.90
2018-08-08T17:48:01.980Z,27.00
2018-08-08T17:50:31.511Z,26.80
2018-08-08T17:53:01.094Z,26.60
2018-08-08T17:55:30.976Z,26.60
2018-08-08T17:58:00.542Z,26.50
2018-08-08T18:00:30.272Z,26.30
2018-08-08T18:02:59.458Z,26.10
2018-08-08T18:05:29.203Z,26.10
2018-08-08T18:07:58.863Z,26.00
2018-08-08T18:10:28.566Z,26.10
2018-08-08T18:12:58.211Z,26.20
2018-08-08T18:15:27.786Z,26.10
2018-08-08T18:17:57.081Z,26.10
2018-08-08T18:20:26.363Z,26.20
2018-08-08T18:22:55.506Z,26.20
2018-08-08T18:25:24.723Z,26.00
2018-08-08T18:27:53.880Z,25.90
2018-08-08T18:30:23.077Z,25.90
2018-08-08T18:32:52.267Z,25.90
2018-08-08T18:35:21.413Z,25.70
2018-08-08T18:37:50.697Z,25.70
2018-08-08T18:40:19.866Z,25.70
2018-08-08T18:42:49.365Z,25.60
2018-08-08T18:45:19.013Z,25.60
2018-08-08T18:47:48.655Z,25.50
2018-08-08T18:50:17.899Z,25.40
2018-08-08T18:52:47.111Z,25.30
2018-08-08T18:55:16.396Z,24.90
2018-08-08T18:57:45.659Z,24.60
2018-08-08T19:00:14.825Z,24.40
2018-08-08T19:02:44.043Z,24.40
2018-08-08T19:05:13.169Z,24.40
2018-08-08T19:07:42.975Z,24.40
2018-08-08T19:10:12.290Z,24.50
2018-08-08T19:12:41.464Z,24.60
2018-08-08T19:15:10.730Z,24.70
2018-08-08T19:17:39.961Z,24.70
2018-08-08T19:20:09.081Z,24.70
2018-08-08T19:22:38.527Z,24.80
2018-08-08T19:25:07.756Z,24.70
2018-08-08T19:27:37.008Z,24.60
2018-08-08T19:30:06.490Z,24.60
2018-08-08T19:32:35.682Z,24.60
2018-08-08T19:35:05.214Z,24.60
2018-08-08T19:37:34.368Z,24.50
2018-08-08T19:40:03.652Z,24.40
2018-08-08T19:42:32.825Z,24.30
2018-08-08T19:45:01.993Z,24.40
2018-08-08T19:47:31.215Z,24.40
2018-08-08T19:50:00.373Z,24.40
2018-08-08T19:52:29.761Z,24.30
2018-08-08T19:54:58.950Z,24.30
2018-08-08T19:57:28.202Z,24.30
2018-08-08T19:59:57.489Z,24.20
2018-08-08T20:02:26.710Z,24.10
2018-08-08T20:04:55.799Z,24.10
2018-08-08T20:07:25.069Z,24.00
2018-08-08T20:09:54.593Z,23.90
2018-08-08T20:12:24.200Z,23.80
2018-08-08T20:14:54.302Z,23.80
2018-08-08T20:17:23.478Z,23.70
2018-08-08T20:19:52.681Z,23.60
2018-08-08T20:22:21.826Z,23.60
2018-08-08T20:24:51.171Z,23.60
2018-08-08T20:27:20.355Z,23.60
2018-08-08T20:29:49.477Z,23.70
2018-08-08T20:32:18.639Z,23.70
2018-08-08T20:34:47.768Z,23.70
2018-08-08T20:37:17.271Z,23.70
2018-08-08T20:39:46.948Z,23.70
2018-08-08T20:42:16.056Z,23.80
2018-08-08T20:44:45.220Z,23.80
2018-08-08T20:47:21.834Z,23.80
2018-08-08T20:49:56.492Z,23.70
2018-08-08T20:52:26.012Z,23.70
2018-08-08T20:54:55.105Z,23.80
2018-08-08T20:57:29.922Z,23.80
2018-08-08T20:59:59.039Z,23.70
2018-08-08T21:02:28.182Z,23.60
2018-08-08T21:04:57.398Z,23.60
2018-08-08T21:07:26.577Z,23.50
2018-08-08T21:09:55.704Z,23.50
2018-08-08T21:12:24.786Z,23.50
2018-08-08T21:14:53.944Z,23.40
2018-08-08T21:17:23.051Z,23.30
2018-08-08T21:19:52.221Z,23.20
2018-08-08T21:22:21.375Z,23.30
2018-08-08T21:24:50.494Z,23.20
2018-08-08T21:27:19.958Z,23.20
2018-08-08T21:29:49.134Z,23.10
2018-08-08T21:32:18.243Z,23.10
2018-08-08T21:34:47.724Z,23.10
2018-08-08T21:37:17.172Z,23.10
2018-08-08T21:39:46.906Z,23.00
2018-08-08T21:42:16.385Z,23.00
2018-08-08T21:44:45.775Z,22.90
2018-08-08T21:47:14.872Z,22.90
2018-08-08T21:49:44.132Z,22.80
2018-08-08T21:52:13.290Z,22.70
2018-08-08T21:54:53.665Z,22.50
2018-08-08T21:57:34.098Z,22.50
2018-08-08T22:00:14.915Z,22.40
2018-08-08T22:02:55.273Z,22.30
2018-08-08T22:05:35.520Z,22.10
2018-08-08T22:08:16.015Z,22.00
2018-08-08T22:11:06.497Z,22.00
2018-08-08T22:13:46.803Z,22.00
2018-08-08T22:16:27.229Z,22.10
2018-08-08T22:20:02.639Z,22.00
2018-08-08T22:22:31.847Z,22.00
2018-08-08T22:25:00.957Z,21.90
2018-08-08T22:27:30.374Z,21.80
2018-08-08T22:29:59.665Z,21.70
2018-08-08T22:32:28.851Z,21.70
2018-08-08T22:34:58.023Z,21.70
2018-08-08T22:37:27.169Z,21.40
2018-08-08T22:39:56.325Z,21.30
2018-08-08T22:42:25.451Z,21.30
2018-08-08T22:44:54.664Z,21.30
2018-08-08T22:47:23.763Z,21.40
2018-08-08T22:49:52.954Z,21.30
2018-08-08T22:52:22.247Z,21.20
2018-08-08T22:54:51.410Z,21.10
2018-08-08T22:57:20.563Z,21.00
2018-08-08T22:59:49.864Z,20.90
2018-08-08T23:02:19.007Z,21.00
2018-08-08T23:04:48.151Z,21.10
2018-08-08T23:07:17.309Z,21.10
2018-08-08T23:09:46.557Z,21.20
2018-08-08T23:12:15.882Z,21.30
2018-08-08T23:14:45.261Z,21.30
2018-08-08T23:17:14.383Z,21.30
2018-08-08T23:19:43.506Z,21.20
2018-08-08T23:22:22.619Z,21.20
2018-08-08T23:24:51.781Z,21.10
2018-08-08T23:27:20.911Z,21.10
2018-08-08T23:29:50.537Z,21.00
2018-08-08T23:32:19.825Z,20.90
2018-08-08T23:34:49.326Z,20.90
2018-08-08T23:37:18.483Z,20.90
2018-08-08T23:39:47.673Z,20.80
2018-08-08T23:42:16.802Z,20.80
2018-08-08T23:44:46.000Z,20.80
2018-08-08T23:47:15.149Z,20.90
2018-08-08T23:49:44.275Z,20.80
2018-08-08T23:52:13.421Z,20.80
2018-08-08T23:54:42.631Z,20.60
2018-08-08T23:57:11.851Z,20.60
2018-08-08T23:59:41.153Z,20.70
